createdAt,value
2023-05-24T00:00:37.296Z,66.50
2023-05-24T00:03:10.029Z,66.50
2023-05-24T00:05:43.074Z,66.60
2023-05-24T00:08:16.730Z,66.50
2023-05-24T00:10:49.332Z,66.60
2023-05-24T00:13:21.932Z,66.60
2023-05-24T00:15:54.508Z,66.60
2023-05-24T00:18:27.148Z,66.70
2023-05-24T00:21:02.881Z,66.60
2023-05-24T00:23:37.379Z,66.60
2023-05-24T00:26:09.995Z,66.50
2023-05-24T00:28:45.601Z,66.60
2023-05-24T00:31:18.238Z,66.50
2023-05-24T00:33:50.975Z,66.50
2023-05-24T00:36:24.752Z,66.50
2023-05-24T00:38:57.296Z,66.50
2023-05-24T00:41:29.820Z,66.50
2023-05-24T00:44:02.511Z,66.50
2023-05-24T00:46:35.579Z,66.50
2023-05-24T00:49:08.757Z,66.60
2023-05-24T00:51:41.366Z,66.60
2023-05-24T00:54:15.425Z,66.60
2023-05-24T00:56:49.096Z,66.60
2023-05-24T00:59:21.838Z,66.60
2023-05-24T01:01:55.726Z,66.60
2023-05-24T01:04:29.194Z,66.60
2023-05-24T01:07:06.579Z,66.60
2023-05-24T01:09:59.877Z,66.60
2023-05-24T01:13:05.939Z,66.50
2023-05-24T01:15:47.733Z,66.60
2023-05-24T01:18:35.351Z,66.60
2023-05-24T01:21:17.657Z,66.60
2023-05-24T01:23:50.163Z,66.60
2023-05-24T01:26:38.756Z,66.60
2023-05-24T01:29:12.673Z,66.60
2023-05-24T01:31:45.933Z,66.60
2023-05-24T01:34:18.703Z,66.70
2023-05-24T01:36:53.032Z,66.70
2023-05-24T01:39:29.381Z,66.70
2023-05-24T01:42:24.321Z,66.70
2023-05-24T01:44:59.741Z,66.70
2023-05-24T01:48:02.535Z,66.80
2023-05-24T01:50:41.406Z,66.80
2023-05-24T01:53:18.380Z,66.70
2023-05-24T01:55:53.768Z,66.80
2023-05-24T01:58:27.312Z,66.80
2023-05-24T02:01:01.227Z,66.80
2023-05-24T02:03:34.481Z,66.90
2023-05-24T02:06:08.653Z,66.90
2023-05-24T02:08:41.020Z,67.80
2023-05-24T02:11:13.535Z,67.00
2023-05-24T02:13:46.258Z,67.10
2023-05-24T02:16:19.205Z,67.10
2023-05-24T02:18:51.928Z,67.20
2023-05-24T02:21:25.622Z,67.20
2023-05-24T02:23:58.261Z,67.20
2023-05-24T02:26:30.969Z,67.10
2023-05-24T02:29:04.062Z,67.20
2023-05-24T02:31:36.917Z,67.20
2023-05-24T02:34:12.118Z,67.20
2023-05-24T02:36:46.074Z,67.30
2023-05-24T02:39:18.644Z,67.30
2023-05-24T02:41:51.222Z,67.30
2023-05-24T02:44:24.010Z,67.40
2023-05-24T02:46:56.472Z,67.40
2023-05-24T02:49:29.157Z,67.40
2023-05-24T02:52:01.746Z,67.50
2023-05-24T02:54:34.341Z,67.50
2023-05-24T02:57:06.977Z,67.40
2023-05-24T02:59:39.904Z,67.40
2023-05-24T03:02:15.185Z,67.40
2023-05-24T03:04:48.031Z,67.40
2023-05-24T03:07:20.725Z,67.50
2023-05-24T03:09:53.347Z,67.50
2023-05-24T03:12:26.171Z,67.50
2023-05-24T03:14:58.828Z,67.50
2023-05-24T03:17:31.556Z,67.60
2023-05-24T03:20:06.125Z,67.60
2023-05-24T03:22:39.052Z,67.50
2023-05-24T03:25:11.637Z,67.50
2023-05-24T03:27:44.310Z,67.60
2023-05-24T03:30:17.979Z,67.60
2023-05-24T03:33:00.480Z,67.60
2023-05-24T03:35:33.053Z,67.60
2023-05-24T03:38:05.686Z,67.60
2023-05-24T03:40:40.414Z,67.60
2023-05-24T03:43:18.780Z,67.60
2023-05-24T03:46:02.300Z,67.70
2023-05-24T03:48:34.886Z,67.70
2023-05-24T03:51:09.441Z,67.70
2023-05-24T03:53:42.100Z,67.70
2023-05-24T03:56:15.229Z,67.70
2023-05-24T03:58:47.900Z,67.70
2023-05-24T04:01:32.703Z,67.70
2023-05-24T04:04:06.451Z,67.80
2023-05-24T04:06:42.122Z,67.80
2023-05-24T04:09:15.055Z,67.80
2023-05-24T04:11:47.546Z,67.90
2023-05-24T04:14:20.134Z,67.80
2023-05-24T04:16:53.944Z,67.80
2023-05-24T04:19:26.589Z,67.80
2023-05-24T04:21:59.129Z,67.70
2023-05-24T04:24:31.788Z,67.80
2023-05-24T04:27:04.428Z,67.80
2023-05-24T04:29:37.519Z,67.70
2023-05-24T04:32:11.433Z,67.80
2023-05-24T04:34:44.415Z,67.80
2023-05-24T04:37:17.690Z,67.80
2023-05-24T04:39:52.485Z,67.80
2023-05-24T04:42:25.414Z,67.80
2023-05-24T04:44:59.008Z,67.80
2023-05-24T04:47:31.702Z,67.80
2023-05-24T04:50:04.868Z,67.70
2023-05-24T04:52:37.263Z,67.90
2023-05-24T04:55:10.502Z,68.00
2023-05-24T04:57:42.999Z,67.80
2023-05-24T05:00:16.043Z,67.50
2023-05-24T05:02:48.905Z,67.10
2023-05-24T05:05:21.906Z,66.80
2023-05-24T05:07:54.486Z,66.70
2023-05-24T05:10:27.505Z,66.50
2023-05-24T05:12:59.942Z,66.40
2023-05-24T05:15:32.940Z,66.30
2023-05-24T05:18:05.574Z,66.20
2023-05-24T05:20:38.304Z,66.30
2023-05-24T05:23:10.952Z,66.50
2023-05-24T05:25:43.647Z,66.60
2023-05-24T05:28:16.228Z,66.60
2023-05-24T05:30:48.900Z,66.30
2023-05-24T05:33:21.529Z,65.70
2023-05-24T05:35:55.059Z,65.10
2023-05-24T05:38:27.675Z,64.70
2023-05-24T05:41:00.280Z,65.20
2023-05-24T05:43:32.875Z,64.20
2023-05-24T05:46:05.676Z,64.30
2023-05-24T05:48:38.329Z,64.30
2023-05-24T05:51:11.222Z,64.20
2023-05-24T05:53:43.802Z,64.10
2023-05-24T05:56:16.760Z,64.10
2023-05-24T05:58:49.231Z,64.20
2023-05-24T06:01:21.792Z,64.80
2023-05-24T06:03:54.519Z,64.60
2023-05-24T06:06:27.177Z,64.20
2023-05-24T06:09:00.900Z,63.50
2023-05-24T06:11:33.647Z,62.90
2023-05-24T06:14:06.357Z,62.60
2023-05-24T06:16:43.770Z,62.40
2023-05-24T06:19:17.171Z,62.00
2023-05-24T06:21:50.926Z,61.80
2023-05-24T06:24:23.592Z,61.70
2023-05-24T06:26:56.315Z,61.60
2023-05-24T06:29:28.853Z,61.60
2023-05-24T06:32:01.610Z,61.70
2023-05-24T06:34:34.227Z,61.80
2023-05-24T06:37:10.561Z,61.80
2023-05-24T06:39:43.238Z,61.70
2023-05-24T06:42:15.924Z,61.60
2023-05-24T06:44:51.730Z,61.50
2023-05-24T06:47:24.582Z,61.30
2023-05-24T06:49:57.466Z,61.30
2023-05-24T06:52:29.989Z,61.20
2023-05-24T06:55:02.739Z,61.60
2023-05-24T06:57:35.281Z,61.10
2023-05-24T07:00:12.329Z,61.00
2023-05-24T07:02:45.069Z,61.00
2023-05-24T07:05:17.800Z,60.90
2023-05-24T07:07:50.332Z,60.80
2023-05-24T07:10:22.865Z,60.80
2023-05-24T07:12:55.756Z,60.80
2023-05-24T07:15:28.403Z,60.60
2023-05-24T07:18:01.046Z,60.50
2023-05-24T07:20:34.046Z,60.20
2023-05-24T07:23:07.426Z,60.00
2023-05-24T07:25:39.946Z,60.10
2023-05-24T07:28:14.618Z,59.60
2023-05-24T07:30:47.378Z,59.40
2023-05-24T07:33:20.241Z,59.20
2023-05-24T07:35:52.832Z,59.10
2023-05-24T07:38:25.545Z,58.90
2023-05-24T07:41:01.444Z,58.60
2023-05-24T07:43:34.181Z,58.20
2023-05-24T07:46:06.924Z,58.10
2023-05-24T07:48:39.630Z,58.00
2023-05-24T07:51:12.762Z,58.00
2023-05-24T07:53:45.446Z,58.10
2023-05-24T07:56:18.139Z,57.90
2023-05-24T07:58:52.506Z,57.90
2023-05-24T08:01:25.231Z,57.70
2023-05-24T08:03:58.591Z,57.60
2023-05-24T08:06:33.182Z,57.50
2023-05-24T08:09:06.334Z,57.40
2023-05-24T08:11:38.737Z,57.50
2023-05-24T08:14:11.987Z,57.60
2023-05-24T08:16:44.725Z,57.40
2023-05-24T08:19:17.446Z,57.10
2023-05-24T08:21:52.915Z,57.30
2023-05-24T08:24:25.842Z,57.10
2023-05-24T08:26:58.260Z,57.10
2023-05-24T08:29:30.923Z,57.40
2023-05-24T08:32:04.418Z,57.10
2023-05-24T08:34:37.917Z,57.30
2023-05-24T08:37:10.914Z,57.40
2023-05-24T08:39:43.894Z,57.40
2023-05-24T08:42:16.621Z,57.30
2023-05-24T08:44:53.963Z,57.70
2023-05-24T08:47:29.482Z,57.50
2023-05-24T08:50:02.903Z,57.40
2023-05-24T08:52:38.500Z,57.30
2023-05-24T08:55:12.301Z,57.40
2023-05-24T08:57:46.364Z,57.40
2023-05-24T09:00:19.751Z,57.50
2023-05-24T09:02:53.079Z,57.00
2023-05-24T09:05:26.638Z,56.80
2023-05-24T09:08:01.434Z,56.40
2023-05-24T09:10:44.952Z,56.30
2023-05-24T09:13:19.728Z,56.30
2023-05-24T09:15:54.062Z,56.30
2023-05-24T09:18:26.878Z,56.20
2023-05-24T09:20:59.781Z,56.00
2023-05-24T09:23:33.147Z,56.00
2023-05-24T09:26:10.052Z,55.80
2023-05-24T09:28:42.771Z,56.00
2023-05-24T09:31:15.387Z,55.90
2023-05-24T09:33:50.189Z,55.80
2023-05-24T09:36:23.629Z,55.80
2023-05-24T09:39:10.581Z,56.00
2023-05-24T09:41:45.802Z,55.70
2023-05-24T09:44:18.393Z,55.70
2023-05-24T09:46:51.752Z,56.00
2023-05-24T09:49:24.435Z,55.80
2023-05-24T09:51:57.220Z,55.60
2023-05-24T09:54:32.154Z,55.90
2023-05-24T09:57:07.222Z,56.00
2023-05-24T09:59:41.590Z,56.20
2023-05-24T10:02:14.269Z,56.20
2023-05-24T10:04:47.398Z,56.00
2023-05-24T10:07:20.376Z,56.20
2023-05-24T10:09:53.477Z,56.10
2023-05-24T10:12:27.355Z,56.20
2023-05-24T10:15:00.877Z,56.30
2023-05-24T10:17:33.569Z,56.40
2023-05-24T10:20:12.626Z,56.40
2023-05-24T10:22:47.117Z,56.40
2023-05-24T10:25:26.213Z,56.50
2023-05-24T10:28:01.842Z,56.50
2023-05-24T10:31:03.441Z,56.40
2023-05-24T10:33:40.366Z,56.20
2023-05-24T10:36:16.281Z,56.00
2023-05-24T10:38:48.967Z,55.90
2023-05-24T10:41:22.671Z,55.70
2023-05-24T10:44:09.263Z,55.80
2023-05-24T10:47:10.721Z,55.80
2023-05-24T10:49:52.669Z,55.70
2023-05-24T10:52:45.484Z,55.80
2023-05-24T10:55:20.326Z,55.90
2023-05-24T10:57:52.898Z,55.90
2023-05-24T11:03:09.381Z,56.10
2023-05-24T11:05:50.980Z,56.30
2023-05-24T11:08:26.122Z,56.70
2023-05-24T11:11:23.907Z,56.80
2023-05-24T11:14:01.590Z,57.30
2023-05-24T11:16:39.543Z,57.50
2023-05-24T11:19:24.252Z,57.80
2023-05-24T11:22:00.855Z,58.00
2023-05-24T11:24:34.434Z,58.30
2023-05-24T11:27:07.499Z,58.40
2023-05-24T11:29:46.477Z,58.50
2023-05-24T11:32:24.341Z,58.60
2023-05-24T11:34:57.047Z,58.50
2023-05-24T11:40:26.656Z,58.80
2023-05-24T11:42:59.336Z,59.10
2023-05-24T11:45:32.859Z,59.30
2023-05-24T11:48:06.820Z,59.40
2023-05-24T11:53:21.330Z,59.80
2023-05-24T11:55:54.793Z,60.00
2023-05-24T11:58:41.615Z,59.60
2023-05-24T12:01:27.715Z,59.70
2023-05-24T12:04:01.510Z,59.60
2023-05-24T12:06:44.904Z,59.40
2023-05-24T12:09:19.030Z,59.20
2023-05-24T12:11:52.929Z,59.30
2023-05-24T12:14:31.418Z,59.10
2023-05-24T12:17:08.803Z,59.30
2023-05-24T12:19:47.181Z,59.30
2023-05-24T12:22:19.853Z,59.20
2023-05-24T12:24:53.038Z,59.20
2023-05-24T12:27:31.100Z,59.20
2023-05-24T12:30:10.457Z,59.30
2023-05-24T12:32:43.189Z,59.00
2023-05-24T12:35:18.785Z,59.10
2023-05-24T12:37:58.439Z,59.50
2023-05-24T12:40:38.506Z,59.90
2023-05-24T12:43:16.353Z,60.30
2023-05-24T12:45:49.935Z,60.60
2023-05-24T12:48:23.690Z,60.80
2023-05-24T12:50:56.134Z,61.10
2023-05-24T12:53:28.810Z,61.00
2023-05-24T12:56:01.918Z,60.90
2023-05-24T12:58:34.526Z,60.80
2023-05-24T13:01:07.176Z,60.70
2023-05-24T13:03:40.137Z,60.50
2023-05-24T13:06:12.547Z,60.30
2023-05-24T13:08:45.545Z,60.60
2023-05-24T13:11:18.072Z,61.00
2023-05-24T13:13:50.653Z,61.30
2023-05-24T13:16:23.487Z,61.90
2023-05-24T13:18:56.307Z,62.60
2023-05-24T13:21:29.564Z,63.30
2023-05-24T13:24:02.141Z,63.50
2023-05-24T13:26:38.493Z,63.80
2023-05-24T13:31:46.834Z,64.50
2023-05-24T13:34:19.800Z,64.80
2023-05-24T13:36:53.555Z,64.80
2023-05-24T13:39:28.181Z,65.10
2023-05-24T13:42:03.791Z,65.50
2023-05-24T13:44:36.614Z,66.00
2023-05-24T13:47:10.105Z,66.00
2023-05-24T13:49:43.182Z,66.10
2023-05-24T13:52:15.767Z,66.50
2023-05-24T13:54:48.742Z,66.60
2023-05-24T13:57:26.536Z,66.80
2023-05-24T14:00:02.484Z,66.60
2023-05-24T14:02:39.416Z,67.00
2023-05-24T14:05:28.388Z,67.10
2023-05-24T14:08:06.904Z,67.20
2023-05-24T14:10:39.760Z,67.20
2023-05-24T14:13:32.193Z,67.30
2023-05-24T14:16:06.635Z,67.60
2023-05-24T14:18:43.334Z,67.50
2023-05-24T14:21:16.134Z,67.80
2023-05-24T14:23:48.798Z,68.10
2023-05-24T14:26:24.086Z,68.30
2023-05-24T14:28:57.215Z,68.30
2023-05-24T14:31:29.814Z,68.40
2023-05-24T14:34:02.516Z,68.80
2023-05-24T14:36:35.164Z,68.60
2023-05-24T14:39:08.463Z,68.80
2023-05-24T14:41:41.184Z,68.90
2023-05-24T14:44:13.911Z,69.10
2023-05-24T14:46:47.694Z,69.30
2023-05-24T14:49:20.712Z,69.50
2023-05-24T14:51:53.217Z,69.70
2023-05-24T14:54:27.985Z,69.50
2023-05-24T14:57:01.269Z,69.80
2023-05-24T14:59:34.036Z,70.10
2023-05-24T15:02:07.355Z,70.30
2023-05-24T15:04:39.947Z,70.60
2023-05-24T15:07:37.314Z,71.30
2023-05-24T15:10:10.069Z,71.10
2023-05-24T15:12:42.606Z,71.30
2023-05-24T15:15:15.340Z,71.40
2023-05-24T15:17:48.655Z,71.70
2023-05-24T15:20:21.734Z,71.70
2023-05-24T15:22:54.511Z,71.90
2023-05-24T15:25:27.330Z,71.90
2023-05-24T15:27:59.896Z,72.10
2023-05-24T15:30:32.569Z,72.40
2023-05-24T15:33:05.157Z,72.60
2023-05-24T15:35:38.080Z,72.70
2023-05-24T15:38:10.840Z,72.60
2023-05-24T15:40:43.851Z,72.70
2023-05-24T15:43:19.254Z,72.80
2023-05-24T15:45:51.785Z,72.80
2023-05-24T15:48:24.553Z,72.80
2023-05-24T15:51:47.013Z,72.80
2023-05-24T15:53:49.866Z,72.90
2023-05-24T15:56:23.755Z,73.00
2023-05-24T15:58:56.356Z,73.10
2023-05-24T16:01:29.090Z,73.20
2023-05-24T16:04:01.807Z,73.40
2023-05-24T16:06:34.398Z,73.40
2023-05-24T16:09:07.421Z,73.50
2023-05-24T16:11:39.881Z,73.70
2023-05-24T16:14:12.605Z,73.60
2023-05-24T16:16:45.552Z,73.80
2023-05-24T16:19:18.023Z,74.00
2023-05-24T16:21:50.599Z,74.00
2023-05-24T16:24:23.180Z,74.10
2023-05-24T16:27:00.199Z,74.20
2023-05-24T16:29:32.704Z,74.50
2023-05-24T16:32:05.626Z,74.40
2023-05-24T16:34:54.898Z,74.40
2023-05-24T16:37:27.922Z,74.50
2023-05-24T16:40:00.507Z,74.40
2023-05-24T16:42:33.054Z,74.50
2023-05-24T16:45:06.645Z,74.60
2023-05-24T16:47:39.383Z,74.70
2023-05-24T16:50:15.838Z,74.80
2023-05-24T16:52:48.661Z,74.90
2023-05-24T16:55:21.593Z,75.90
2023-05-24T16:57:54.251Z,75.90
2023-05-24T17:00:27.231Z,75.20
2023-05-24T17:03:00.673Z,75.20
2023-05-24T17:05:33.319Z,75.10
2023-05-24T17:08:06.989Z,75.20
2023-05-24T17:10:39.761Z,75.30
2023-05-24T17:13:12.465Z,75.40
2023-05-24T17:15:45.017Z,75.70
2023-05-24T17:18:18.202Z,75.80
2023-05-24T17:20:51.483Z,75.80
2023-05-24T17:23:29.137Z,75.70
2023-05-24T17:26:02.993Z,75.70
2023-05-24T17:28:36.550Z,75.70
2023-05-24T17:31:09.832Z,76.10
2023-05-24T17:33:42.362Z,75.60
2023-05-24T17:36:14.984Z,75.80
2023-05-24T17:38:47.644Z,75.90
2023-05-24T17:41:20.255Z,75.90
2023-05-24T17:43:52.872Z,76.00
2023-05-24T17:46:25.640Z,76.00
2023-05-24T17:48:58.632Z,76.20
2023-05-24T17:51:31.795Z,76.20
2023-05-24T17:54:04.159Z,76.30
2023-05-24T17:56:36.680Z,76.10
2023-05-24T17:59:10.262Z,76.30
2023-05-24T18:01:44.203Z,76.30
2023-05-24T18:04:16.931Z,76.50
2023-05-24T18:06:49.653Z,76.50
2023-05-24T18:09:22.417Z,76.40
2023-05-24T18:11:55.040Z,76.40
2023-05-24T18:14:27.793Z,76.50
2023-05-24T18:17:01.841Z,76.50
2023-05-24T18:19:34.438Z,76.50
2023-05-24T18:22:06.944Z,76.60
2023-05-24T18:24:39.626Z,76.60
2023-05-24T18:27:12.148Z,76.60
2023-05-24T18:29:44.868Z,76.60
2023-05-24T18:32:17.643Z,76.90
2023-05-24T18:34:50.251Z,77.00
2023-05-24T18:37:23.346Z,77.20
2023-05-24T18:39:56.230Z,77.20
2023-05-24T18:42:28.809Z,77.10
2023-05-24T18:45:01.399Z,77.20
2023-05-24T18:47:34.021Z,77.30
2023-05-24T18:50:08.035Z,77.50
2023-05-24T18:52:40.640Z,78.40
2023-05-24T18:55:13.425Z,77.60
2023-05-24T18:57:46.167Z,77.70
2023-05-24T19:00:23.008Z,77.70
2023-05-24T19:02:55.929Z,77.70
2023-05-24T19:05:28.489Z,77.70
2023-05-24T19:08:01.315Z,77.80
2023-05-24T19:10:34.131Z,78.00
2023-05-24T19:13:07.195Z,78.00
2023-05-24T19:15:39.610Z,78.00
2023-05-24T19:18:12.198Z,78.70
2023-05-24T19:20:44.727Z,78.00
2023-05-24T19:23:17.359Z,78.00
2023-05-24T19:25:50.713Z,77.90
2023-05-24T19:28:24.370Z,77.90
2023-05-24T19:30:56.947Z,77.90
2023-05-24T19:33:29.609Z,77.90
2023-05-24T19:36:02.251Z,77.80
2023-05-24T19:38:34.808Z,77.80
2023-05-24T19:41:07.437Z,77.80
2023-05-24T19:43:40.151Z,77.70
2023-05-24T19:46:14.882Z,77.80
2023-05-24T19:48:49.852Z,77.80
2023-05-24T19:51:22.646Z,77.90
2023-05-24T19:53:55.279Z,77.90
2023-05-24T19:56:28.017Z,77.80
2023-05-24T19:59:00.801Z,77.90
2023-05-24T20:01:33.462Z,77.80
2023-05-24T20:04:06.152Z,77.90
2023-05-24T20:06:38.913Z,77.90
2023-05-24T20:09:11.689Z,77.90
2023-05-24T20:11:44.343Z,77.80
2023-05-24T20:14:18.308Z,77.80
2023-05-24T20:16:50.870Z,77.90
2023-05-24T20:19:23.841Z,77.90
2023-05-24T20:21:57.592Z,77.80
2023-05-24T20:24:33.170Z,77.90
2023-05-24T20:27:06.623Z,77.80
2023-05-24T20:29:39.256Z,77.80
2023-05-24T20:32:12.143Z,77.90
2023-05-24T20:34:44.924Z,77.90
2023-05-24T20:37:17.574Z,77.90
2023-05-24T20:39:50.143Z,77.90
2023-05-24T20:42:22.777Z,77.90
2023-05-24T20:44:55.324Z,77.90
2023-05-24T20:47:30.152Z,77.80
2023-05-24T20:50:04.291Z,77.80
2023-05-24T20:52:37.026Z,77.80
2023-05-24T20:55:09.787Z,77.80
2023-05-24T20:57:42.773Z,77.80
2023-05-24T21:00:16.331Z,77.90
2023-05-24T21:02:48.996Z,77.80
2023-05-24T21:05:21.653Z,77.80
2023-05-24T21:07:54.227Z,77.90
2023-05-24T21:10:28.147Z,77.80
2023-05-24T21:13:00.818Z,77.80
2023-05-24T21:15:33.401Z,77.80
2023-05-24T21:18:06.319Z,77.80
2023-05-24T21:20:38.916Z,77.80
2023-05-24T21:23:11.648Z,77.60
2023-05-24T21:25:44.412Z,77.70
2023-05-24T21:28:17.194Z,77.70
2023-05-24T21:30:49.910Z,77.70
2023-05-24T21:33:22.585Z,77.70
2023-05-24T21:35:55.272Z,77.60
2023-05-24T21:38:27.854Z,77.60
2023-05-24T21:41:00.546Z,77.70
2023-05-24T21:43:33.252Z,77.60
2023-05-24T21:46:06.240Z,77.60
2023-05-24T21:48:38.645Z,77.70
2023-05-24T21:51:11.348Z,78.40
2023-05-24T21:53:43.984Z,77.40
2023-05-24T21:56:16.628Z,77.40
2023-05-24T21:58:49.169Z,77.40
2023-05-24T22:01:21.867Z,77.30
2023-05-24T22:03:54.913Z,77.20
2023-05-24T22:06:27.541Z,77.10
2023-05-24T22:09:02.234Z,76.90
2023-05-24T22:11:35.425Z,76.80
2023-05-24T22:14:07.862Z,76.80
2023-05-24T22:16:40.602Z,76.80
2023-05-24T22:19:16.898Z,76.80
2023-05-24T22:21:53.181Z,76.80
2023-05-24T22:24:26.755Z,76.80
2023-05-24T22:27:01.493Z,76.70
2023-05-24T22:29:34.129Z,76.80
2023-05-24T22:32:07.026Z,76.60
2023-05-24T22:34:39.807Z,76.50
2023-05-24T22:37:12.611Z,76.50
2023-05-24T22:39:45.596Z,76.50
2023-05-24T22:42:18.374Z,76.50
2023-05-24T22:44:51.161Z,76.40
2023-05-24T22:47:24.272Z,76.40
2023-05-24T22:49:56.692Z,76.30
2023-05-24T22:52:30.503Z,76.20
2023-05-24T22:55:03.708Z,76.10
2023-05-24T22:57:36.594Z,76.10
2023-05-24T23:00:09.925Z,76.10
2023-05-24T23:02:42.549Z,76.10
2023-05-24T23:05:16.969Z,76.10
2023-05-24T23:07:49.698Z,76.10
2023-05-24T23:10:22.347Z,76.10
2023-05-24T23:12:55.536Z,76.20
2023-05-24T23:15:29.252Z,76.10
2023-05-24T23:18:02.783Z,76.10
2023-05-24T23:20:36.485Z,76.00
2023-05-24T23:23:08.943Z,76.10
2023-05-24T23:25:41.736Z,76.00
2023-05-24T23:28:14.487Z,76.10
2023-05-24T23:30:47.042Z,76.20
2023-05-24T23:33:19.902Z,76.20
2023-05-24T23:35:52.419Z,76.30
2023-05-24T23:38:25.034Z,76.40
2023-05-24T23:40:57.566Z,76.50
2023-05-24T23:43:31.264Z,76.60
2023-05-24T23:46:03.938Z,76.60
2023-05-24T23:48:36.651Z,76.70
2023-05-24T23:51:10.498Z,76.70
2023-05-24T23:53:43.123Z,76.80
2023-05-24T23:56:15.935Z,76.80
2023-05-24T23:58:51.965Z,76.90
